createdAt,value
2019-02-20T00:01:20.962Z,75.18
2019-02-20T00:04:08.178Z,73.33
2019-02-20T00:10:02.565Z,74.45
2019-02-20T00:12:50.935Z,74.62
2019-02-20T00:15:37.830Z,74.71
2019-02-20T00:18:25.156Z,74.79
2019-02-20T00:21:12.588Z,74.73
2019-02-20T00:24:01.197Z,73.17
2019-02-20T00:26:48.962Z,74.39
2019-02-20T00:35:49.493Z,75.36
2019-02-20T00:38:36.505Z,73.55
2019-02-20T00:41:24.028Z,74.65
2019-02-20T00:44:17.061Z,74.94
2019-02-20T00:47:05.726Z,75.06
2019-02-20T00:49:52.773Z,73.24
2019-02-20T00:56:01.278Z,71.60
2019-02-20T00:58:48.603Z,71.13
2019-02-20T01:04:41.646Z,73.88
2019-02-20T01:07:28.784Z,74.19
2019-02-20T01:10:16.298Z,74.64
2019-02-20T01:13:04.040Z,75.15
2019-02-20T01:15:51.836Z,75.47
2019-02-20T01:18:39.182Z,75.51
2019-02-20T01:21:26.582Z,75.63
2019-02-20T01:24:14.147Z,75.76
2019-02-20T01:27:02.688Z,75.74
2019-02-20T01:32:56.268Z,76.25
2019-02-20T01:35:43.884Z,76.56
2019-02-20T01:38:31.299Z,76.59
2019-02-20T01:41:19.530Z,74.97
2019-02-20T01:44:06.771Z,75.98
2019-02-20T01:46:54.087Z,76.40
2019-02-20T01:49:42.738Z,76.56
2019-02-20T01:52:29.965Z,75.22
2019-02-20T01:55:17.305Z,76.02
2019-02-20T01:58:04.554Z,76.14
2019-02-20T02:00:51.820Z,76.53
2019-02-20T02:03:39.274Z,76.39
2019-02-20T02:06:26.565Z,76.59
2019-02-20T02:09:13.872Z,76.58
2019-02-20T02:12:01.224Z,75.16
2019-02-20T02:14:48.323Z,76.14
2019-02-20T02:17:36.243Z,76.34
2019-02-20T02:26:37.220Z,76.77
2019-02-20T02:32:30.287Z,76.39
2019-02-20T02:35:18.054Z,76.67
2019-02-20T02:38:12.604Z,76.45
2019-02-20T02:44:07.328Z,75.75
2019-02-20T02:46:54.835Z,76.21
2019-02-20T02:49:42.005Z,74.71
2019-02-20T02:52:28.959Z,75.65
2019-02-20T02:58:22.343Z,76.40
2019-02-20T03:01:09.759Z,76.70
2019-02-20T03:03:57.711Z,76.95
2019-02-20T03:12:58.344Z,77.51
2019-02-20T03:15:45.639Z,77.60
2019-02-20T03:21:39.130Z,77.98
2019-02-20T03:30:42.236Z,78.19
2019-02-20T03:39:41.751Z,76.70
2019-02-20T03:42:29.079Z,77.11
2019-02-20T03:45:19.369Z,77.28
2019-02-20T03:48:08.402Z,77.31
2019-02-20T03:51:13.668Z,75.61
2019-02-20T03:54:00.830Z,76.65
2019-02-20T03:59:55.371Z,77.93
2019-02-20T04:05:54.642Z,78.32
2019-02-20T04:08:40.355Z,78.58
2019-02-20T04:11:27.386Z,78.39
2019-02-20T04:14:15.233Z,78.42
2019-02-20T04:17:02.150Z,78.45
2019-02-20T04:19:49.243Z,78.42
2019-02-20T04:22:36.770Z,78.70
2019-02-20T04:25:31.872Z,78.50
2019-02-20T04:34:40.200Z,78.24
2019-02-20T04:37:27.988Z,78.43
2019-02-20T04:40:15.666Z,78.70
2019-02-20T04:43:06.004Z,78.86
2019-02-20T04:45:54.801Z,78.91
2019-02-20T04:48:42.217Z,78.83
2019-02-20T04:51:29.825Z,79.11
2019-02-20T04:54:21.573Z,79.19
2019-02-20T04:57:11.244Z,79.29
2019-02-20T04:59:58.483Z,78.92
2019-02-20T05:05:51.814Z,78.77
2019-02-20T05:08:38.951Z,78.83
2019-02-20T05:11:28.827Z,78.77
2019-02-20T05:20:27.955Z,79.28
2019-02-20T05:23:15.055Z,79.23
2019-02-20T05:26:02.280Z,79.19
2019-02-20T05:28:52.160Z,79.09
2019-02-20T05:34:48.596Z,78.95
2019-02-20T05:37:35.619Z,78.92
2019-02-20T05:46:36.629Z,78.82
2019-02-20T05:52:41.536Z,78.97
2019-02-20T06:04:50.125Z,78.71
2019-02-20T06:07:42.870Z,78.76
2019-02-20T06:10:42.372Z,78.70
2019-02-20T06:13:32.175Z,78.82
2019-02-20T06:16:20.909Z,78.59
2019-02-20T06:19:08.123Z,78.71
2019-02-20T06:21:55.824Z,78.87
2019-02-20T06:24:44.330Z,78.98
2019-02-20T06:27:45.230Z,79.06
2019-02-20T06:30:32.900Z,78.62
2019-02-20T06:33:22.405Z,78.89
2019-02-20T06:36:10.180Z,78.62
2019-02-20T06:38:57.524Z,78.79
2019-02-20T06:41:45.036Z,78.86
2019-02-20T06:50:52.520Z,78.63
2019-02-20T06:56:50.273Z,78.91
2019-02-20T06:59:37.672Z,78.81
2019-02-20T07:02:25.389Z,78.99
2019-02-20T07:05:34.368Z,77.11
2019-02-20T07:15:17.368Z,78.50
2019-02-20T07:18:07.472Z,78.40
2019-02-20T07:24:21.697Z,78.18
2019-02-20T07:33:43.678Z,78.14
2019-02-20T07:36:31.916Z,78.04
2019-02-20T07:42:27.700Z,77.69
2019-02-20T07:45:15.734Z,77.56
2019-02-20T07:48:02.703Z,77.39
2019-02-20T07:50:51.094Z,74.90
2019-02-20T07:53:38.128Z,75.62
2019-02-20T08:02:40.372Z,75.95
2019-02-20T08:05:27.634Z,75.95
2019-02-20T08:14:29.915Z,76.13
2019-02-20T08:20:23.986Z,75.94
2019-02-20T08:26:17.697Z,75.33
2019-02-20T08:29:07.665Z,74.83
2019-02-20T08:41:15.591Z,73.73
2019-02-20T08:44:03.426Z,73.04
2019-02-20T08:46:50.855Z,72.95
2019-02-20T08:52:47.284Z,72.22
2019-02-20T08:55:35.344Z,71.65
2019-02-20T08:58:23.036Z,71.12
2019-02-20T09:01:12.323Z,71.38
2019-02-20T09:04:00.343Z,70.81
2019-02-20T09:13:00.886Z,67.52
2019-02-20T09:18:56.610Z,67.28
2019-02-20T09:21:44.164Z,62.64
2019-02-20T09:24:38.946Z,60.20
2019-02-20T09:27:27.409Z,63.33
2019-02-20T09:30:14.696Z,60.11
2019-02-20T09:33:02.250Z,62.47
2019-02-20T09:35:50.772Z,63.27
2019-02-20T09:38:38.015Z,63.88
2019-02-20T09:41:29.195Z,59.14
2019-02-20T09:44:16.209Z,56.91
2019-02-20T09:47:18.121Z,60.43
2019-02-20T09:50:05.842Z,61.88
2019-02-20T09:52:53.365Z,62.19
2019-02-20T09:55:50.937Z,62.59
2019-02-20T10:01:36.211Z,62.71
2019-02-20T10:07:29.779Z,61.39
2019-02-20T10:10:16.766Z,57.27
2019-02-20T10:13:05.108Z,60.34
2019-02-20T10:25:11.699Z,62.38
2019-02-20T10:27:59.013Z,61.39
2019-02-20T10:30:46.666Z,61.39
2019-02-20T10:33:33.964Z,61.41
2019-02-20T10:39:27.583Z,61.33
2019-02-20T10:45:21.547Z,59.04
2019-02-20T10:51:16.333Z,59.94
2019-02-20T10:54:04.369Z,54.77
2019-02-20T10:56:51.917Z,57.04
2019-02-20T11:02:45.446Z,50.90
2019-02-20T11:11:45.246Z,56.84
2019-02-20T11:14:32.416Z,57.60
2019-02-20T11:17:22.443Z,57.18
2019-02-20T11:20:10.168Z,57.35
2019-02-20T11:22:57.247Z,57.62
2019-02-20T11:41:17.409Z,57.60
2019-02-20T11:47:24.899Z,56.62
2019-02-20T11:50:26.646Z,56.56
2019-02-20T11:53:14.035Z,56.54
2019-02-20T11:56:01.357Z,56.59
2019-02-20T11:58:48.511Z,56.44
2019-02-20T12:01:35.689Z,56.46
2019-02-20T12:04:23.256Z,56.52
2019-02-20T12:07:10.518Z,55.69
2019-02-20T12:09:58.890Z,55.64
2019-02-20T12:12:47.782Z,55.75
2019-02-20T12:15:49.889Z,55.99
2019-02-20T12:21:57.736Z,55.06
2019-02-20T12:24:45.127Z,54.26
2019-02-20T12:27:46.849Z,55.65
2019-02-20T12:30:33.925Z,49.22
2019-02-20T12:36:30.800Z,52.91
2019-02-20T12:39:18.503Z,52.65
2019-02-20T12:42:05.777Z,52.79
2019-02-20T12:44:53.043Z,52.73
2019-02-20T12:47:47.959Z,47.15
2019-02-20T12:53:56.576Z,51.27
2019-02-20T12:56:44.346Z,45.99
2019-02-20T12:59:31.118Z,48.62
2019-02-20T13:05:24.489Z,49.83
2019-02-20T13:08:11.831Z,49.89
2019-02-20T13:10:59.471Z,51.79
2019-02-20T13:13:46.792Z,51.43
2019-02-20T13:19:56.792Z,46.20
2019-02-20T13:22:56.967Z,48.37
2019-02-20T13:25:44.224Z,49.56
2019-02-20T13:28:45.910Z,49.83
2019-02-20T13:31:33.282Z,46.20
2019-02-20T13:34:20.597Z,44.87
2019-02-20T13:37:07.730Z,48.56
2019-02-20T13:46:08.156Z,50.69
2019-02-20T13:48:57.309Z,50.68
2019-02-20T13:51:42.926Z,50.36
2019-02-20T13:54:29.976Z,50.55
2019-02-20T13:57:17.666Z,50.85
2019-02-20T14:00:04.793Z,50.54
2019-02-20T14:02:52.071Z,50.63
2019-02-20T14:05:42.567Z,50.49
2019-02-20T14:08:30.710Z,50.73
2019-02-20T14:14:26.462Z,50.23
2019-02-20T14:17:13.844Z,50.48
2019-02-20T14:20:01.392Z,50.46
2019-02-20T14:25:55.346Z,51.32
2019-02-20T14:28:43.091Z,50.74
2019-02-20T14:31:30.305Z,47.05
2019-02-20T14:46:47.872Z,49.90
2019-02-20T14:49:35.313Z,50.69
2019-02-20T14:52:22.360Z,51.05
2019-02-20T14:58:30.302Z,51.62
2019-02-20T15:01:17.997Z,51.34
2019-02-20T15:04:05.483Z,51.34
2019-02-20T15:06:52.899Z,51.64
2019-02-20T15:09:40.352Z,48.81
2019-02-20T15:12:27.855Z,47.98
2019-02-20T15:15:15.170Z,47.74
2019-02-20T15:18:02.693Z,50.38
2019-02-20T15:20:51.535Z,51.82
2019-02-20T15:23:38.669Z,52.84
2019-02-20T15:29:32.452Z,53.09
2019-02-20T15:32:34.485Z,53.37
2019-02-20T15:38:28.084Z,54.19
2019-02-20T15:41:15.399Z,54.39
2019-02-20T15:44:02.924Z,54.91
2019-02-20T15:46:52.798Z,55.27
2019-02-20T15:53:01.535Z,55.75
2019-02-20T15:55:48.657Z,56.02
2019-02-20T15:58:35.743Z,56.56
2019-02-20T16:01:38.631Z,54.60
2019-02-20T16:04:26.853Z,56.37
2019-02-20T16:07:14.462Z,56.94
2019-02-20T16:13:09.114Z,57.38
2019-02-20T16:16:10.742Z,57.51
2019-02-20T16:18:57.968Z,57.46
2019-02-20T16:21:44.953Z,57.52
2019-02-20T16:24:32.312Z,57.62
2019-02-20T16:27:19.251Z,57.83
2019-02-20T16:30:06.453Z,57.95
2019-02-20T16:32:53.955Z,58.19
2019-02-20T16:35:55.887Z,58.26
2019-02-20T16:38:43.112Z,58.31
2019-02-20T16:47:45.530Z,59.13
2019-02-20T16:50:32.633Z,59.20
2019-02-20T16:53:21.165Z,59.47
2019-02-20T17:02:20.887Z,60.27
2019-02-20T17:08:14.382Z,60.73
2019-02-20T17:14:23.127Z,60.92
2019-02-20T17:17:10.501Z,58.62
2019-02-20T17:23:04.407Z,60.72
2019-02-20T17:25:59.193Z,60.96
2019-02-20T17:28:46.702Z,61.39
2019-02-20T17:31:33.837Z,61.36
2019-02-20T17:34:21.272Z,61.36
2019-02-20T17:43:28.784Z,61.59
2019-02-20T17:46:16.396Z,59.69
2019-02-20T17:49:03.608Z,59.20
2019-02-20T17:51:50.860Z,61.02
2019-02-20T17:54:37.758Z,61.49
2019-02-20T17:57:24.866Z,61.83
2019-02-20T18:00:12.519Z,61.90
2019-02-20T18:03:00.922Z,62.26
2019-02-20T18:05:48.236Z,60.45
2019-02-20T18:08:35.771Z,62.03
2019-02-20T18:11:23.388Z,62.43
2019-02-20T18:14:11.246Z,63.17
2019-02-20T18:16:59.369Z,63.43
2019-02-20T18:22:55.942Z,63.90
2019-02-20T18:28:49.841Z,61.69
2019-02-20T18:31:38.405Z,63.60
2019-02-20T18:34:24.460Z,64.42
2019-02-20T18:37:11.996Z,64.85
2019-02-20T18:39:59.404Z,64.87
2019-02-20T18:42:46.652Z,64.75
2019-02-20T18:45:34.118Z,64.91
2019-02-20T18:51:34.989Z,65.08
2019-02-20T18:54:22.423Z,65.29
2019-02-20T18:57:09.384Z,65.37
2019-02-20T18:59:56.746Z,65.66
2019-02-20T19:02:44.793Z,65.89
2019-02-20T19:12:00.371Z,66.10
2019-02-20T19:18:23.450Z,66.22
2019-02-20T19:21:16.430Z,66.40
2019-02-20T19:24:18.920Z,66.48
2019-02-20T19:27:29.867Z,66.73
2019-02-20T19:30:29.012Z,66.71
2019-02-20T19:33:31.160Z,66.72
2019-02-20T19:36:32.303Z,66.65
2019-02-20T19:39:34.901Z,66.74
2019-02-20T19:49:41.418Z,66.83
2019-02-20T19:52:37.933Z,66.57
2019-02-20T19:55:49.141Z,66.46
2019-02-20T20:02:10.067Z,65.76
2019-02-20T20:05:34.369Z,66.10
2019-02-20T20:11:53.876Z,66.59
2019-02-20T20:14:43.582Z,66.81
2019-02-20T20:24:00.253Z,65.64
2019-02-20T20:26:50.573Z,67.10
2019-02-20T20:30:05.495Z,67.48
2019-02-20T20:36:26.566Z,67.64
2019-02-20T20:39:13.806Z,67.77
2019-02-20T20:42:36.236Z,65.97
2019-02-20T20:45:26.516Z,64.75
2019-02-20T20:48:19.881Z,66.50
2019-02-20T20:51:35.296Z,67.01
2019-02-20T20:54:25.000Z,67.34
2019-02-20T21:01:13.933Z,67.88
2019-02-20T21:04:16.558Z,65.81
2019-02-20T21:07:43.620Z,67.53
2019-02-20T21:10:34.977Z,68.13
2019-02-20T21:13:41.509Z,68.16
2019-02-20T21:16:35.168Z,68.38
2019-02-20T21:22:54.384Z,68.21
2019-02-20T21:26:11.862Z,68.51
2019-02-20T21:28:59.067Z,68.60
2019-02-20T21:32:13.541Z,66.83
2019-02-20T21:35:07.433Z,68.14
2019-02-20T21:41:24.526Z,68.87
2019-02-20T21:44:17.497Z,67.00
2019-02-20T21:47:18.120Z,68.50
2019-02-20T21:57:04.497Z,69.69
2019-02-20T22:00:13.585Z,69.94
2019-02-20T22:03:04.503Z,70.08
2019-02-20T22:05:51.511Z,70.40
2019-02-20T22:08:45.301Z,70.45
2019-02-20T22:11:44.549Z,70.79
2019-02-20T22:14:38.154Z,70.94
2019-02-20T22:21:20.979Z,71.14
2019-02-20T22:27:30.727Z,71.33
2019-02-20T22:30:39.474Z,71.36
2019-02-20T22:33:44.430Z,71.43
2019-02-20T22:36:44.683Z,71.60
2019-02-20T22:40:15.079Z,71.93
2019-02-20T22:43:05.266Z,72.08
2019-02-20T22:45:58.969Z,72.18
2019-02-20T22:52:15.427Z,72.31
2019-02-20T22:55:26.469Z,72.50
2019-02-20T22:58:22.506Z,72.61
2019-02-20T23:01:22.673Z,72.50
2019-02-20T23:04:11.707Z,72.52
2019-02-20T23:07:12.847Z,72.56
2019-02-20T23:10:34.280Z,70.97
2019-02-20T23:13:36.613Z,70.06
2019-02-20T23:16:24.523Z,71.42
2019-02-20T23:19:12.502Z,71.90
2019-02-20T23:22:00.746Z,71.89
2019-02-20T23:31:03.754Z,72.37
2019-02-20T23:33:49.508Z,72.47
2019-02-20T23:36:37.843Z,72.53
2019-02-20T23:42:31.736Z,71.90
2019-02-20T23:45:18.882Z,72.33
2019-02-20T23:48:08.215Z,72.56
2019-02-20T23:57:08.462Z,72.92
2019-02-20T23:59:56.336Z,73.06
